Time;durP1;ratioP1;P1;durP2;ratioP2;P2;SDS_P1;SDS_P2;PMS_P1;PMS_P2;Temp;Humidity;BMP_temperature;BMP_pressure;BME280_temperature;BME280_humidity;BME280_pressure;Samples;Min_cycle;Max_cycle;Signal;HPM_P1;HPM_P2
2024/03/24 00:01:20;;;;;;;;;;;;;;;11.80;52.07;98990.91;5052253;28;19999;-82
2024/03/24 00:03:45;;;;;;;;;;;;;;;11.79;53.15;98991.91;5052121;28;19924;-83
2024/03/24 00:06:11;;;;;;;;;;;;;;;11.80;51.97;98987.44;5052156;28;20019;-82
2024/03/24 00:08:36;;;;;;;;;;;;;;;11.77;50.67;98983.34;5052273;28;20309;-82
2024/03/24 00:11:02;;;;;;;;;;;;;;;11.72;50.82;98975.19;5051960;28;19912;-82
2024/03/24 00:13:27;;;;;;;;;;;;;;;11.70;52.02;98972.72;5034419;28;20354;-82
2024/03/24 00:15:52;;;;;;;;;;;;;;;11.61;52.38;98973.13;5052046;28;19917;-82
2024/03/24 00:18:17;;;;;;;;;;;;;;;11.60;51.89;98976.78;5051983;28;19920;-82
2024/03/24 00:20:43;;;;;;;;;;;;;;;11.56;50.83;98980.81;5067398;28;19913;-82
2024/03/24 00:23:08;;;;;;;;;;;;;;;11.52;50.38;98982.22;5051926;28;19913;-82
2024/03/24 00:25:34;;;;;;;;;;;;;;;11.42;50.71;98972.84;5051749;28;20015;-82
2024/03/24 00:27:59;;;;;;;;;;;;;;;11.32;52.79;98972.41;5051956;28;19913;-83
2024/03/24 00:30:24;;;;;;;;;;;;;;;11.19;52.04;98967.06;5051936;28;19913;-83
2024/03/24 00:32:52;;;;;;;;;;;;;;;11.10;51.67;98970.84;5054364;28;19908;-83
2024/03/24 00:35:17;;;;;;;;;;;;;;;11.05;51.61;98967.97;5059238;28;19944;-82
2024/03/24 00:37:43;;;;;;;;;;;;;;;11.02;52.07;98976.28;5059324;28;19917;-82
2024/03/24 00:40:09;;;;;;;;;;;;;;;11.01;51.80;98970.19;5055895;28;19916;-82
2024/03/24 00:42:35;;;;;;;;;;;;;;;10.97;51.01;98968.13;5055929;28;19913;-82
2024/03/24 00:45:00;;;;;;;;;;;;;;;10.95;51.87;98967.50;5037711;28;19924;-82
2024/03/24 00:47:25;;;;;;;;;;;;;;;10.95;51.13;98964.84;5037770;28;19912;-82
2024/03/24 00:49:50;;;;;;;;;;;;;;;10.90;51.30;98964.63;5038093;28;19912;-82
2024/03/24 00:52:16;;;;;;;;;;;;;;;10.88;50.75;98962.19;5055498;28;20401;-82
2024/03/24 00:54:41;;;;;;;;;;;;;;;10.85;52.43;98962.56;5055590;28;19999;-82
2024/03/24 00:57:06;;;;;;;;;;;;;;;10.80;52.31;98952.59;5055426;28;19919;-82
2024/03/24 00:59:31;;;;;;;;;;;;;;;10.75;52.51;98952.34;5055344;28;19927;-82
2024/03/24 01:01:57;;;;;;;;;;;;;;;10.73;51.93;98951.72;5037173;28;19912;-82
2024/03/24 01:04:22;;;;;;;;;;;;;;;10.72;50.13;98962.47;5055287;28;19917;-82
2024/03/24 01:06:47;;;;;;;;;;;;;;;10.65;51.46;98961.63;5055299;28;20004;-82
2024/03/24 01:09:13;;;;;;;;;;;;;;;10.57;52.24;98967.88;5055420;28;20311;-82
2024/03/24 01:11:40;;;;;;;;;;;;;;;10.53;50.80;98963.16;5037841;28;20374;-82
2024/03/24 01:14:06;;;;;;;;;;;;;;;10.40;51.50;98958.56;5055215;28;19923;-82
2024/03/24 01:16:31;;;;;;;;;;;;;;;10.35;51.86;98956.50;5037255;28;19939;-82
2024/03/24 01:18:57;;;;;;;;;;;;;;;10.32;52.85;98954.25;5055126;28;19912;-83
2024/03/24 01:21:22;;;;;;;;;;;;;;;10.26;53.43;98955.00;5055147;28;20427;-82
2024/03/24 01:23:48;;;;;;;;;;;;;;;10.25;51.83;98957.84;5037297;28;19913;-82
2024/03/24 01:26:13;;;;;;;;;;;;;;;10.26;51.65;98956.84;5055052;28;19917;-83
2024/03/24 01:28:38;;;;;;;;;;;;;;;10.21;51.55;98959.22;5054857;28;20008;-83
2024/03/24 01:31:04;;;;;;;;;;;;;;;10.14;52.25;98954.69;5055174;28;19913;-83
2024/03/24 01:33:29;;;;;;;;;;;;;;;10.09;53.12;98953.59;5070214;28;20373;-83
2024/03/24 01:35:55;;;;;;;;;;;;;;;10.04;54.08;98948.09;5070435;28;19913;-84
2024/03/24 01:38:20;;;;;;;;;;;;;;;10.00;53.09;98945.00;5054834;28;19920;-82
2024/03/24 01:40:48;;;;;;;;;;;;;;;9.98;53.13;98952.28;5054728;28;20559;-82
2024/03/24 01:43:13;;;;;;;;;;;;;;;9.95;52.90;98954.50;5054049;28;19917;-83
2024/03/24 01:45:39;;;;;;;;;;;;;;;9.92;53.33;98949.59;5054181;28;19917;-83
2024/03/24 01:48:04;;;;;;;;;;;;;;;9.91;53.60;98945.31;5054632;28;19919;-83
2024/03/24 01:50:29;;;;;;;;;;;;;;;9.84;52.54;98934.72;5054770;28;19917;-83
2024/03/24 01:52:55;;;;;;;;;;;;;;;9.82;53.19;98937.53;5054902;28;19913;-84
2024/03/24 01:55:21;;;;;;;;;;;;;;;9.78;52.40;98936.28;5056492;28;20003;-82
2024/03/24 01:57:46;;;;;;;;;;;;;;;9.78;52.46;98938.91;5054938;28;19989;-83
2024/03/24 02:00:11;;;;;;;;;;;;;;;9.77;53.40;98939.91;5054312;28;19979;-82
2024/03/24 02:02:37;;;;;;;;;;;;;;;9.79;53.67;98937.91;5054179;28;19956;-82
2024/03/24 02:05:02;;;;;;;;;;;;;;;9.85;52.59;98946.91;5054372;28;19923;-82
2024/03/24 02:07:28;;;;;;;;;;;;;;;9.92;52.64;98944.31;5054153;28;20367;-82
2024/03/24 02:09:53;;;;;;;;;;;;;;;9.90;52.81;98933.97;5054111;28;19912;-82
2024/03/24 02:12:18;;;;;;;;;;;;;;;9.92;53.13;98928.50;5036262;28;20011;-82
2024/03/24 02:14:43;;;;;;;;;;;;;;;9.90;52.46;98941.88;5036215;28;19913;-82
2024/03/24 02:17:09;;;;;;;;;;;;;;;9.90;51.17;98933.97;5054078;28;19958;-83
2024/03/24 02:19:34;;;;;;;;;;;;;;;9.91;52.30;98934.78;5054057;28;19966;-83
2024/03/24 02:21:59;;;;;;;;;;;;;;;9.93;52.36;98930.13;5035905;28;19913;-83
2024/03/24 02:24:25;;;;;;;;;;;;;;;9.93;53.48;98928.31;5036449;28;20305;-83
2024/03/24 02:26:50;;;;;;;;;;;;;;;9.87;53.52;98929.06;5069329;28;19913;-82
2024/03/24 02:29:15;;;;;;;;;;;;;;;9.89;51.67;98927.06;5053809;28;19913;-82
2024/03/24 02:31:41;;;;;;;;;;;;;;;9.84;51.51;98932.91;5053753;28;19935;-82
2024/03/24 02:34:06;;;;;;;;;;;;;;;9.80;51.82;98933.47;5053773;28;19915;-82
2024/03/24 02:36:32;;;;;;;;;;;;;;;9.77;51.98;98934.66;5053693;28;20443;-82
2024/03/24 02:38:58;;;;;;;;;;;;;;;9.73;52.29;98928.13;5053656;28;19912;-82
2024/03/24 02:41:24;;;;;;;;;;;;;;;9.74;51.95;98928.94;5053440;28;19923;-82
2024/03/24 02:43:49;;;;;;;;;;;;;;;9.69;52.74;98932.13;5053435;28;20300;-82
2024/03/24 02:46:14;;;;;;;;;;;;;;;9.67;52.04;98931.50;5053427;28;19917;-82
2024/03/24 02:48:40;;;;;;;;;;;;;;;9.62;52.29;98935.66;5053580;28;19955;-82
2024/03/24 02:51:05;;;;;;;;;;;;;;;9.55;53.68;98928.50;5053672;28;19919;-82
2024/03/24 02:53:30;;;;;;;;;;;;;;;9.47;52.23;98928.63;5035651;28;20419;-83
2024/03/24 02:55:55;;;;;;;;;;;;;;;9.46;52.39;98928.81;5035334;28;19919;-83
2024/03/24 02:58:21;;;;;;;;;;;;;;;9.45;52.70;98935.91;5035573;28;19913;-83
2024/03/24 03:00:46;;;;;;;;;;;;;;;9.49;51.71;98934.53;5068602;28;19909;-83
2024/03/24 03:03:12;;;;;;;;;;;;;;;9.55;51.73;98932.97;5053420;28;19921;-83
2024/03/24 03:05:38;;;;;;;;;;;;;;;9.55;51.51;98928.50;5053217;28;19917;-84
2024/03/24 03:08:03;;;;;;;;;;;;;;;9.54;51.79;98926.88;5053357;28;19923;-83
2024/03/24 03:10:32;;;;;;;;;;;;;;;9.50;51.90;98919.53;5053702;28;19967;-84
2024/03/24 03:12:58;;;;;;;;;;;;;;;9.48;51.28;98922.34;5058500;28;19920;-82
2024/03/24 03:15:24;;;;;;;;;;;;;;;9.38;53.05;98906.03;5053500;28;19917;-82
2024/03/24 03:17:49;;;;;;;;;;;;;;;9.20;52.49;98879.28;5053035;28;19913;-82
2024/03/24 03:20:14;;;;;;;;;;;;;;;9.33;52.45;98907.59;5052676;28;20294;-83
2024/03/24 03:22:40;;;;;;;;;;;;;;;9.34;52.95;98902.13;5052653;28;19940;-82
2024/03/24 03:25:06;;;;;;;;;;;;;;;9.31;52.66;98899.88;5052727;28;19917;-83
2024/03/24 03:27:32;;;;;;;;;;;;;;;9.28;54.05;98892.34;5052631;28;19920;-82
2024/03/24 03:29:57;;;;;;;;;;;;;;;9.23;53.39;98884.19;5034719;28;20302;-83
2024/03/24 03:32:22;;;;;;;;;;;;;;;9.22;53.07;98887.81;5052699;28;19919;-83
2024/03/24 03:34:47;;;;;;;;;;;;;;;9.20;52.89;98892.44;5052348;28;19943;-84
2024/03/24 03:37:13;;;;;;;;;;;;;;;9.20;52.91;98893.28;5034822;28;20304;-83
2024/03/24 03:39:38;;;;;;;;;;;;;;;9.21;52.85;98891.44;5052223;28;19913;-83
2024/03/24 03:42:03;;;;;;;;;;;;;;;9.17;53.67;98885.75;5034594;28;19916;-83
2024/03/24 03:44:29;;;;;;;;;;;;;;;9.15;52.64;98898.28;5052551;28;19936;-83
2024/03/24 03:46:54;;;;;;;;;;;;;;;9.02;53.83;98897.28;5034489;28;19913;-83
2024/03/24 03:49:20;;;;;;;;;;;;;;;8.84;53.21;98893.19;5052387;28;19916;-83
2024/03/24 03:51:46;;;;;;;;;;;;;;;8.78;54.24;98893.13;5052319;28;20407;-83
2024/03/24 03:54:12;;;;;;;;;;;;;;;8.78;53.09;98901.00;5034336;28;19913;-83
2024/03/24 03:56:37;;;;;;;;;;;;;;;8.73;52.46;98913.91;5052091;28;19913;-83
2024/03/24 03:59:03;;;;;;;;;;;;;;;8.70;52.64;98917.72;5052168;28;20373;-83
2024/03/24 04:01:28;;;;;;;;;;;;;;;8.65;52.91;98917.44;5051922;28;19913;-83
2024/03/24 04:03:53;;;;;;;;;;;;;;;8.51;53.61;98910.34;5052267;28;19928;-83
2024/03/24 04:06:19;;;;;;;;;;;;;;;8.52;53.83;98906.72;5051561;28;20408;-84
2024/03/24 04:08:44;;;;;;;;;;;;;;;8.53;53.61;98900.47;5034038;28;19967;-82
2024/03/24 04:11:09;;;;;;;;;;;;;;;8.57;53.78;98899.09;5034261;28;19920;-81
2024/03/24 04:13:34;;;;;;;;;;;;;;;8.60;54.03;98898.75;5034104;28;20363;-82
2024/03/24 04:16:00;;;;;;;;;;;;;;;8.59;53.52;98891.84;5051768;28;19949;-83
2024/03/24 04:18:25;;;;;;;;;;;;;;;8.61;53.02;98889.84;5052026;28;19943;-82
2024/03/24 04:20:51;;;;;;;;;;;;;;;8.67;52.50;98904.09;5034409;28;20314;-83
2024/03/24 04:23:17;;;;;;;;;;;;;;;8.67;53.39;98886.50;5034276;28;19913;-83
2024/03/24 04:25:42;;;;;;;;;;;;;;;8.71;52.70;98900.09;5051668;28;19917;-83
2024/03/24 04:28:08;;;;;;;;;;;;;;;8.73;53.07;98900.75;5052032;28;20382;-84
2024/03/24 04:30:34;;;;;;;;;;;;;;;8.70;52.90;98901.91;5052309;28;19917;-84
2024/03/24 04:32:59;;;;;;;;;;;;;;;8.62;53.59;98907.28;5059225;28;20321;-83
2024/03/24 04:35:24;;;;;;;;;;;;;;;8.55;53.18;98919.53;5051792;28;19919;-83
2024/03/24 04:37:50;;;;;;;;;;;;;;;8.49;53.36;98917.59;5033847;28;19920;-82
2024/03/24 04:40:15;;;;;;;;;;;;;;;8.44;52.08;98910.25;5051537;28;19978;-83
2024/03/24 04:42:40;;;;;;;;;;;;;;;8.36;53.15;98902.44;5033632;28;19963;-83
2024/03/24 04:45:07;;;;;;;;;;;;;;;8.41;52.88;98913.25;5033716;28;20381;-82
2024/03/24 04:47:33;;;;;;;;;;;;;;;8.42;52.33;98922.78;5033928;28;19978;-82
2024/03/24 04:49:58;;;;;;;;;;;;;;;8.44;52.60;98927.84;5051759;28;19921;-82
2024/03/24 04:52:24;;;;;;;;;;;;;;;8.40;52.35;98916.06;5051598;28;19909;-83
2024/03/24 04:54:50;;;;;;;;;;;;;;;8.41;51.70;98907.97;5033747;28;19977;-83
2024/03/24 04:57:16;;;;;;;;;;;;;;;8.40;53.02;98906.34;5051590;28;20371;-82
2024/03/24 04:59:41;;;;;;;;;;;;;;;8.39;52.57;98896.00;5051418;28;20412;-84
2024/03/24 05:02:07;;;;;;;;;;;;;;;8.39;53.40;98898.63;5051102;28;20282;-84
2024/03/24 05:04:33;;;;;;;;;;;;;;;8.46;52.48;98886.41;5051389;28;19912;-84
2024/03/24 05:06:59;;;;;;;;;;;;;;;8.51;52.33;98891.94;5051429;28;19919;-83
2024/03/24 05:09:25;;;;;;;;;;;;;;;8.52;53.11;98898.84;5033350;28;19913;-83
2024/03/24 05:11:50;;;;;;;;;;;;;;;8.51;52.61;98903.28;5051229;28;19920;-83
2024/03/24 05:14:15;;;;;;;;;;;;;;;8.54;52.77;98896.84;5033447;28;19913;-83
2024/03/24 05:16:41;;;;;;;;;;;;;;;8.61;51.83;98900.38;5051360;28;20411;-84
2024/03/24 05:19:06;;;;;;;;;;;;;;;8.53;52.26;98888.13;5036103;28;20003;-83
2024/03/24 05:21:32;;;;;;;;;;;;;;;8.52;53.40;98888.31;5037102;28;19912;-84
2024/03/24 05:23:57;;;;;;;;;;;;;;;8.59;52.23;98887.41;5055140;28;19913;-84
2024/03/24 05:26:24;;;;;;;;;;;;;;;8.64;52.85;98889.50;5070298;28;20340;-84
2024/03/24 05:28:50;;;;;;;;;;;;;;;8.73;52.01;98892.84;5037302;28;19917;-84
2024/03/24 05:31:15;;;;;;;;;;;;;;;8.77;51.95;98887.03;5055042;28;19921;-83
2024/03/24 05:33:41;;;;;;;;;;;;;;;8.82;52.89;98876.78;5054920;28;19916;-84
2024/03/24 05:36:06;;;;;;;;;;;;;;;8.79;52.96;98871.88;5037067;28;19919;-84
2024/03/24 05:38:31;;;;;;;;;;;;;;;8.88;51.45;98876.03;5054989;28;19913;-83
2024/03/24 05:41:07;;;;;;;;;;;;;;;9.00;51.86;98880.88;5037113;28;19912;-84
2024/03/24 05:43:32;;;;;;;;;;;;;;;9.05;51.89;98881.94;5054831;28;20328;-82
2024/03/24 05:45:57;;;;;;;;;;;;;;;9.13;51.88;98881.03;5054631;28;20008;-83
2024/03/24 05:48:23;;;;;;;;;;;;;;;9.24;51.63;98883.19;5054728;28;19960;-84
2024/03/24 05:50:57;;;;;;;;;;;;;;;9.34;52.18;98888.97;5044178;28;19908;-82
2024/03/24 05:53:23;;;;;;;;;;;;;;;9.43;51.54;98895.75;5069953;28;19916;-82
2024/03/24 05:55:50;;;;;;;;;;;;;;;9.54;51.70;98895.25;5036477;28;20369;-82
2024/03/24 05:58:16;;;;;;;;;;;;;;;9.61;51.63;98900.59;5036346;28;20312;-83
2024/03/24 06:00:41;;;;;;;;;;;;;;;9.70;51.50;98917.13;5036147;28;19913;-83
2024/03/24 06:03:07;;;;;;;;;;;;;;;9.73;52.05;98909.66;5036192;28;19986;-82
2024/03/24 06:05:34;;;;;;;;;;;;;;;9.78;51.78;98906.47;5054218;28;19970;-83
2024/03/24 06:07:59;;;;;;;;;;;;;;;9.88;51.18;98910.41;5036386;28;19913;-83
2024/03/24 06:10:24;;;;;;;;;;;;;;;9.99;51.36;98916.19;5054061;28;19908;-83
2024/03/24 06:12:49;;;;;;;;;;;;;;;10.06;52.18;98919.69;5036243;28;20313;-83
2024/03/24 06:15:15;;;;;;;;;;;;;;;10.11;51.08;98920.75;5054141;28;19920;-83
2024/03/24 06:17:40;;;;;;;;;;;;;;;10.22;51.58;98908.91;5054036;28;19920;-82
2024/03/24 06:20:06;;;;;;;;;;;;;;;10.29;51.36;98908.97;5054337;28;20411;-82
2024/03/24 06:22:31;;;;;;;;;;;;;;;10.39;50.84;98912.06;5069372;28;20353;-82
2024/03/24 06:24:57;;;;;;;;;;;;;;;10.52;51.07;98911.38;5053901;28;19967;-83
2024/03/24 06:27:22;;;;;;;;;;;;;;;10.62;50.46;98914.50;5035947;28;19938;-82
2024/03/24 06:29:47;;;;;;;;;;;;;;;10.73;50.09;98909.47;5053333;28;19905;-82
2024/03/24 06:32:12;;;;;;;;;;;;;;;10.88;50.31;98911.19;5035967;28;19939;-82
2024/03/24 06:34:38;;;;;;;;;;;;;;;10.98;50.66;98909.81;5053703;28;20381;-82
2024/03/24 06:37:03;;;;;;;;;;;;;;;11.10;49.96;98907.44;5053739;28;19920;-82
2024/03/24 06:39:28;;;;;;;;;;;;;;;11.21;48.61;98900.78;5053898;28;19919;-82
2024/03/24 06:41:56;;;;;;;;;;;;;;;11.31;50.19;98893.31;5053636;28;19988;-82
2024/03/24 06:44:23;;;;;;;;;;;;;;;11.44;49.89;98888.88;5053411;28;19948;-82
2024/03/24 06:46:48;;;;;;;;;;;;;;;11.60;49.46;98895.63;5035871;28;20019;-82
2024/03/24 06:49:13;;;;;;;;;;;;;;;11.73;49.36;98897.47;5053688;28;19913;-82
2024/03/24 06:51:38;;;;;;;;;;;;;;;11.85;49.52;98903.00;5053597;28;19912;-82
2024/03/24 06:54:04;;;;;;;;;;;;;;;11.95;49.63;98901.63;5053658;28;20009;-82
2024/03/24 06:56:29;;;;;;;;;;;;;;;12.01;48.88;98907.94;5053314;28;20365;-83
2024/03/24 06:58:55;;;;;;;;;;;;;;;12.03;49.14;98908.56;5053519;28;19913;-82
2024/03/24 07:01:20;;;;;;;;;;;;;;;12.11;48.86;98903.06;5053342;28;20363;-82
2024/03/24 07:03:45;;;;;;;;;;;;;;;12.16;48.90;98900.63;5053463;28;20397;-83
2024/03/24 07:06:13;;;;;;;;;;;;;;;12.22;48.80;98888.41;5035533;28;19974;-82
2024/03/24 07:08:42;;;;;;;;;;;;;;;12.26;49.11;98889.63;5072832;28;19944;-82
2024/03/24 07:11:08;;;;;;;;;;;;;;;12.28;48.52;98896.34;5057868;28;19974;-82
2024/03/24 07:13:33;;;;;;;;;;;;;;;12.36;48.69;98892.66;5053219;28;19921;-82
2024/03/24 07:15:58;;;;;;;;;;;;;;;12.46;48.59;98898.34;5053217;28;20253;-82
2024/03/24 07:18:23;;;;;;;;;;;;;;;12.58;47.99;98898.53;5053177;28;19948;-82
2024/03/24 07:20:56;;;;;;;;;;;;;;;12.68;47.79;98897.13;5052740;28;19917;-82
2024/03/24 07:23:22;;;;;;;;;;;;;;;12.82;47.27;98886.50;5052516;28;19920;-82
2024/03/24 07:25:47;;;;;;;;;;;;;;;12.90;47.64;98895.03;5052652;28;19921;-82
2024/03/24 07:28:12;;;;;;;;;;;;;;;12.96;47.39;98888.88;5052684;28;19917;-82
2024/03/24 07:30:37;;;;;;;;;;;;;;;13.05;47.39;98887.63;5034565;28;19978;-82
2024/03/24 07:33:03;;;;;;;;;;;;;;;13.15;46.86;98887.19;5067775;28;19913;-82
2024/03/24 07:35:28;;;;;;;;;;;;;;;13.22;46.82;98882.69;5052819;28;19978;-82
2024/03/24 07:37:54;;;;;;;;;;;;;;;13.32;46.97;98888.34;5067948;28;19916;-82
2024/03/24 07:40:21;;;;;;;;;;;;;;;13.46;46.92;98877.72;5035074;28;19920;-82
2024/03/24 07:42:46;;;;;;;;;;;;;;;13.58;46.77;98876.00;5051764;28;20329;-82
2024/03/24 07:45:11;;;;;;;;;;;;;;;13.72;46.49;98876.72;5052253;28;19921;-82
2024/03/24 07:47:37;;;;;;;;;;;;;;;13.85;46.08;98873.97;5052438;28;20309;-82
2024/03/24 07:50:03;;;;;;;;;;;;;;;13.94;45.65;98867.38;5052385;28;20309;-82
2024/03/24 07:52:28;;;;;;;;;;;;;;;14.02;46.02;98861.00;5052687;28;20384;-82
2024/03/24 07:54:54;;;;;;;;;;;;;;;14.12;45.49;98853.34;5052475;28;19919;-82
2024/03/24 07:57:19;;;;;;;;;;;;;;;14.22;45.61;98866.97;5052055;28;20275;-82
2024/03/24 07:59:44;;;;;;;;;;;;;;;14.28;44.89;98861.59;5034214;28;19913;-82
2024/03/24 08:02:10;;;;;;;;;;;;;;;14.27;44.96;98854.66;5051919;28;19909;-82
2024/03/24 08:04:35;;;;;;;;;;;;;;;14.32;44.75;98862.78;5052241;28;20003;-82
2024/03/24 08:07:01;;;;;;;;;;;;;;;14.34;44.92;98859.09;5052537;28;20305;-82
2024/03/24 08:09:26;;;;;;;;;;;;;;;14.39;45.36;98860.06;5051946;28;19919;-82
2024/03/24 08:11:51;;;;;;;;;;;;;;;14.45;44.78;98855.75;5034209;28;20317;-82
2024/03/24 08:14:17;;;;;;;;;;;;;;;14.54;44.62;98857.91;5034118;28;19920;-82
2024/03/24 08:16:42;;;;;;;;;;;;;;;14.64;44.55;98846.78;5034497;28;19923;-82
2024/03/24 08:19:07;;;;;;;;;;;;;;;14.67;45.52;98848.16;5034320;28;19912;-82
2024/03/24 08:21:33;;;;;;;;;;;;;;;14.77;45.28;98853.78;5034413;28;19916;-81
2024/03/24 08:23:58;;;;;;;;;;;;;;;14.90;44.79;98856.31;5052407;28;19913;-83
2024/03/24 08:26:23;;;;;;;;;;;;;;;14.99;44.54;98854.97;5052252;28;19917;-81
2024/03/24 08:28:48;;;;;;;;;;;;;;;15.07;45.70;98854.69;5062028;28;19960;-80
2024/03/24 08:31:14;;;;;;;;;;;;;;;15.17;45.12;98849.63;5051753;28;19909;-82
2024/03/24 08:33:39;;;;;;;;;;;;;;;15.32;45.29;98841.25;5051833;28;19913;-82
2024/03/24 08:36:05;;;;;;;;;;;;;;;15.50;45.05;98835.88;5051581;28;19920;-81
2024/03/24 08:38:30;;;;;;;;;;;;;;;15.68;44.03;98834.25;5033823;28;19909;-81
2024/03/24 08:40:55;;;;;;;;;;;;;;;15.73;44.76;98831.72;5033791;28;19944;-81
2024/03/24 08:43:21;;;;;;;;;;;;;;;15.78;44.33;98829.97;5051716;28;19913;-80
2024/03/24 08:45:46;;;;;;;;;;;;;;;15.87;44.61;98823.28;5051632;28;19923;-81
2024/03/24 08:48:11;;;;;;;;;;;;;;;15.91;44.44;98818.31;5067191;28;19920;-81
2024/03/24 08:50:36;;;;;;;;;;;;;;;16.03;43.61;98813.81;5051706;28;19913;-81
2024/03/24 08:53:02;;;;;;;;;;;;;;;16.11;44.13;98817.97;5034913;28;19916;-81
2024/03/24 08:55:27;;;;;;;;;;;;;;;16.23;44.74;98812.66;5055859;28;20373;-81
2024/03/24 08:57:52;;;;;;;;;;;;;;;16.35;45.00;98811.63;5055912;28;19913;-80
2024/03/24 09:00:18;;;;;;;;;;;;;;;16.49;43.63;98810.34;5037597;28;19913;-80
2024/03/24 09:02:43;;;;;;;;;;;;;;;16.59;43.99;98809.75;5055329;28;19920;-80
2024/03/24 09:05:08;;;;;;;;;;;;;;;16.75;43.84;98805.56;5055724;28;19974;-81
2024/03/24 09:07:34;;;;;;;;;;;;;;;16.83;44.11;98797.19;5037658;28;19913;-80
2024/03/24 09:09:59;;;;;;;;;;;;;;;16.83;43.77;98799.84;5037439;28;19913;-81
2024/03/24 09:12:25;;;;;;;;;;;;;;;16.85;43.17;98797.75;5037703;28;20447;-80
2024/03/24 09:14:50;;;;;;;;;;;;;;;16.83;43.18;98786.53;5037562;28;19912;-81
2024/03/24 09:17:15;;;;;;;;;;;;;;;16.87;43.58;98785.00;5055489;28;19913;-80
2024/03/24 09:19:41;;;;;;;;;;;;;;;17.03;43.33;98772.78;5055096;28;19912;-81
2024/03/24 09:22:06;;;;;;;;;;;;;;;17.15;43.43;98770.91;5037348;28;19977;-80
2024/03/24 09:24:32;;;;;;;;;;;;;;;17.35;42.69;98762.44;5055096;28;20007;-79
2024/03/24 09:26:59;;;;;;;;;;;;;;;17.54;42.63;98757.69;5054973;28;19924;-81
2024/03/24 09:29:25;;;;;;;;;;;;;;;17.77;42.06;98758.34;5054935;28;19936;-80
2024/03/24 09:31:50;;;;;;;;;;;;;;;17.98;41.80;98748.00;5054983;28;20373;-81
2024/03/24 09:34:15;;;;;;;;;;;;;;;18.20;41.63;98756.06;5054793;28;20320;-80
2024/03/24 09:36:40;;;;;;;;;;;;;;;18.45;41.51;98743.03;5054794;28;19912;-81
2024/03/24 09:39:06;;;;;;;;;;;;;;;18.67;40.55;98735.06;5036866;28;19917;-80
2024/03/24 09:41:31;;;;;;;;;;;;;;;18.86;40.58;98733.66;5054648;28;19919;-80
2024/03/24 09:43:57;;;;;;;;;;;;;;;19.07;40.36;98728.53;5054874;28;19913;-80
2024/03/24 09:46:23;;;;;;;;;;;;;;;19.24;39.82;98724.66;5055480;28;19917;-81
2024/03/24 09:48:49;;;;;;;;;;;;;;;19.45;39.62;98723.00;5040707;28;19913;-80
2024/03/24 09:51:17;;;;;;;;;;;;;;;19.65;39.63;98709.81;5036840;28;19913;-80
2024/03/24 09:53:43;;;;;;;;;;;;;;;19.89;39.28;98706.72;5035042;28;19924;-80
2024/03/24 09:56:09;;;;;;;;;;;;;;;20.08;38.47;98696.41;5054443;28;19913;-81
2024/03/24 09:58:35;;;;;;;;;;;;;;;20.16;38.84;98704.78;5054794;28;19913;-81
2024/03/24 10:01:01;;;;;;;;;;;;;;;20.30;37.57;98700.53;5054385;28;19919;-80
2024/03/24 10:03:26;;;;;;;;;;;;;;;20.37;37.91;98694.94;5054335;28;20011;-79
2024/03/24 10:05:51;;;;;;;;;;;;;;;20.50;36.73;98681.06;5035657;28;19917;-78
2024/03/24 10:08:17;;;;;;;;;;;;;;;20.71;37.01;98681.94;5054407;28;19916;-79
2024/03/24 10:10:42;;;;;;;;;;;;;;;20.81;37.06;98691.91;5054354;28;19943;-79
2024/03/24 10:13:08;;;;;;;;;;;;;;;20.72;34.09;98674.69;5054327;28;19912;-79
2024/03/24 10:15:33;;;;;;;;;;;;;;;20.76;36.14;98665.84;5054105;28;19913;-81
2024/03/24 10:18:03;;;;;;;;;;;;;;;20.78;35.16;98660.22;5036476;28;19923;-81
2024/03/24 10:20:29;;;;;;;;;;;;;;;20.98;36.20;98659.47;5036383;28;19909;-79
2024/03/24 10:22:55;;;;;;;;;;;;;;;21.17;35.18;98655.19;5054044;28;19971;-79
2024/03/24 10:25:24;;;;;;;;;;;;;;;21.34;34.80;98644.19;5054250;28;20313;-80
2024/03/24 10:27:52;;;;;;;;;;;;;;;21.46;34.89;98652.78;5054012;28;19912;-80
2024/03/24 10:30:18;;;;;;;;;;;;;;;21.69;33.94;98654.13;5053998;28;19913;-80
2024/03/24 10:32:43;;;;;;;;;;;;;;;21.73;32.13;98639.88;5053875;28;20042;-80
2024/03/24 10:35:09;;;;;;;;;;;;;;;22.02;31.82;98640.03;5035872;28;19912;-80
2024/03/24 10:37:35;;;;;;;;;;;;;;;22.16;32.48;98634.91;5053959;28;19995;-80
2024/03/24 10:40:01;;;;;;;;;;;;;;;22.35;31.23;98622.47;5053743;28;20005;-80
2024/03/24 10:42:27;;;;;;;;;;;;;;;22.58;33.16;98612.94;5053747;28;19982;-78
2024/03/24 10:44:54;;;;;;;;;;;;;;;22.63;30.54;98606.72;5053570;28;19912;-80
2024/03/24 10:47:20;;;;;;;;;;;;;;;22.71;31.42;98598.03;5053574;28;19935;-80
2024/03/24 10:49:46;;;;;;;;;;;;;;;22.89;30.92;98593.91;5053474;28;20444;-80
2024/03/24 10:52:14;;;;;;;;;;;;;;;23.07;31.57;98572.50;5053642;28;20008;-79
2024/03/24 10:54:39;;;;;;;;;;;;;;;23.14;31.97;98564.91;5053525;28;19913;-80
2024/03/24 10:57:05;;;;;;;;;;;;;;;23.09;31.11;98567.66;5053060;28;19913;-82
2024/03/24 10:59:31;;;;;;;;;;;;;;;23.35;29.91;98560.13;5053585;28;19913;-79
2024/03/24 11:01:57;;;;;;;;;;;;;;;23.63;28.83;98553.09;5035296;28;19913;-79
2024/03/24 11:04:23;;;;;;;;;;;;;;;23.83;30.23;98552.09;5053823;28;19913;-78
2024/03/24 11:06:49;;;;;;;;;;;;;;;24.04;29.10;98563.41;5053242;28;19916;-80
2024/03/24 11:09:14;;;;;;;;;;;;;;;23.99;28.58;98547.31;5059926;28;19920;-79
2024/03/24 11:11:40;;;;;;;;;;;;;;;24.18;28.50;98531.94;5053810;28;19913;-80
2024/03/24 11:14:06;;;;;;;;;;;;;;;24.14;30.74;98525.53;5053252;28;19913;-80
2024/03/24 11:16:32;;;;;;;;;;;;;;;24.06;30.27;98521.59;5034666;28;19948;-78
2024/03/24 11:19:10;;;;;;;;;;;;;;;24.28;29.30;98515.63;5034901;28;19955;-79
2024/03/24 11:21:37;;;;;;;;;;;;;;;24.39;28.75;98513.59;5053069;28;19913;-79
2024/03/24 11:24:06;;;;;;;;;;;;;;;24.50;28.76;98504.22;5052946;28;19920;-78
2024/03/24 11:26:32;;;;;;;;;;;;;;;24.59;29.55;98505.19;5034592;28;19925;-78
2024/03/24 11:28:57;;;;;;;;;;;;;;;24.52;29.39;98499.34;5052864;28;19912;-80
2024/03/24 11:31:22;;;;;;;;;;;;;;;24.65;29.21;98490.53;5052699;28;20290;-80
2024/03/24 11:34:03;;;;;;;;;;;;;;;24.81;27.52;98477.56;5067995;28;19983;-80
2024/03/24 11:36:28;;;;;;;;;;;;;;;24.80;28.55;98475.97;5052625;28;20037;-79
2024/03/24 11:38:54;;;;;;;;;;;;;;;24.89;28.82;98476.06;5034774;28;20448;-80
2024/03/24 11:41:20;;;;;;;;;;;;;;;24.83;28.66;98466.47;5052433;28;20020;-80
2024/03/24 11:43:52;;;;;;;;;;;;;;;24.80;27.10;98472.47;5034510;28;19913;-80
2024/03/24 11:46:18;;;;;;;;;;;;;;;24.85;27.75;98456.16;5034199;28;19917;-81
2024/03/24 11:48:44;;;;;;;;;;;;;;;24.91;29.13;98457.69;5067959;28;19913;-80
2024/03/24 11:51:11;;;;;;;;;;;;;;;25.02;29.41;98448.31;5052851;28;19952;-80
2024/03/24 11:53:36;;;;;;;;;;;;;;;25.07;28.76;98445.53;5052403;28;19919;-80
2024/03/24 11:56:01;;;;;;;;;;;;;;;25.05;28.22;98444.22;5052442;28;19912;-80
2024/03/24 11:58:27;;;;;;;;;;;;;;;24.98;29.59;98431.09;5052407;28;20355;-81
2024/03/24 12:00:52;;;;;;;;;;;;;;;24.93;28.85;98431.19;5034272;28;20035;-80
2024/03/24 12:03:18;;;;;;;;;;;;;;;24.82;29.46;98430.56;5030826;28;19921;-80
2024/03/24 12:05:43;;;;;;;;;;;;;;;24.74;29.55;98425.06;5032401;28;20308;-80
2024/03/24 12:08:09;;;;;;;;;;;;;;;24.51;28.54;98413.28;5031191;28;19955;-80
2024/03/24 12:10:34;;;;;;;;;;;;;;;24.42;29.40;98417.75;5030633;28;19920;-81
2024/03/24 12:13:00;;;;;;;;;;;;;;;24.24;29.61;98408.59;5032125;28;19920;-80
2024/03/24 12:15:26;;;;;;;;;;;;;;;23.99;29.70;98409.78;5032168;28;19913;-80
2024/03/24 12:17:51;;;;;;;;;;;;;;;23.92;30.17;98412.84;5031035;28;20313;-80
2024/03/24 12:20:17;;;;;;;;;;;;;;;23.76;30.15;98408.75;5032147;28;19914;-80
2024/03/24 12:22:43;;;;;;;;;;;;;;;23.63;30.27;98404.88;5032111;28;20405;-80
2024/03/24 12:25:09;;;;;;;;;;;;;;;23.42;30.86;98408.91;5030825;28;19918;-80
2024/03/24 12:27:34;;;;;;;;;;;;;;;23.31;30.82;98405.56;5033963;28;19944;-80
2024/03/24 12:30:01;;;;;;;;;;;;;;;23.21;30.87;98400.28;5039860;28;19909;-80
2024/03/24 12:32:27;;;;;;;;;;;;;;;23.08;31.21;98396.41;5031825;28;19913;-80
2024/03/24 12:34:53;;;;;;;;;;;;;;;22.98;30.88;98398.38;5032060;28;19913;-80
2024/03/24 12:37:19;;;;;;;;;;;;;;;22.91;31.09;98397.94;5031927;28;19920;-80
2024/03/24 12:39:48;;;;;;;;;;;;;;;22.87;31.17;98391.50;5032050;28;19917;-80
2024/03/24 12:42:13;;;;;;;;;;;;;;;22.84;31.26;98406.34;5031965;28;19921;-80